Time;durP1;ratioP1;P1;durP2;ratioP2;P2;SDS_P1;SDS_P2;PMS_P1;PMS_P2;Temp;Humidity;BMP_temperature;BMP_pressure;BME280_temperature;BME280_humidity;BME280_pressure;Samples;Min_cycle;Max_cycle;Signal;HPM_P1;HPM_P2
2023/12/02 00:01:30;;;;;;;51.93;29.53;;;-0.20;92.60;;;;;;5130420;27;20430;-71
2023/12/02 00:03:56;;;;;;;51.70;28.13;;;-0.20;92.70;;;;;;5112554;27;21057;-71
2023/12/02 00:06:22;;;;;;;49.58;27.98;;;-0.20;92.70;;;;;;5111316;27;20422;-71
2023/12/02 00:08:47;;;;;;;55.23;29.67;;;-0.20;92.70;;;;;;5094971;27;20403;-71
2023/12/02 00:11:13;;;;;;;50.08;27.25;;;-0.20;92.70;;;;;;5130390;27;20501;-71
2023/12/02 00:13:38;;;;;;;48.40;27.57;;;-0.10;92.70;;;;;;5112685;27;20403;-71
2023/12/02 00:16:06;;;;;;;50.97;27.77;;;-0.10;92.70;;;;;;5128996;27;20475;-71
2023/12/02 00:18:31;;;;;;;50.33;27.37;;;-0.10;92.60;;;;;;5131237;27;20473;-71
2023/12/02 00:20:57;;;;;;;47.27;26.97;;;-0.10;92.70;;;;;;5111041;27;20514;-71
2023/12/02 00:23:22;;;;;;;47.65;26.80;;;-0.10;92.60;;;;;;5130936;27;20430;-71
2023/12/02 00:25:48;;;;;;;46.63;27.10;;;-0.10;92.70;;;;;;5128915;27;20471;-71
2023/12/02 00:28:14;;;;;;;48.92;28.77;;;-0.10;92.60;;;;;;5131318;27;20780;-71
2023/12/02 00:30:40;;;;;;;50.22;27.85;;;-0.10;92.60;;;;;;5128358;27;20420;-71
2023/12/02 00:33:05;;;;;;;53.20;28.45;;;-0.10;92.70;;;;;;5111869;27;20406;-72
2023/12/02 00:35:31;;;;;;;48.13;27.33;;;-0.10;92.80;;;;;;5120759;27;20418;-72
2023/12/02 00:37:56;;;;;;;49.73;27.50;;;-0.10;92.80;;;;;;5092973;27;20414;-72
2023/12/02 00:40:22;;;;;;;50.60;27.45;;;-0.10;92.80;;;;;;5128839;27;20407;-71
2023/12/02 00:42:48;;;;;;;50.53;27.70;;;-0.10;92.80;;;;;;5110973;27;20943;-71
2023/12/02 00:45:13;;;;;;;54.63;28.23;;;-0.10;92.70;;;;;;5111686;27;20905;-71
2023/12/02 00:47:39;;;;;;;50.10;27.20;;;-0.10;92.60;;;;;;5125737;27;20420;-72
2023/12/02 00:50:06;;;;;;;49.20;27.47;;;-0.10;92.60;;;;;;5129426;27;20430;-71
2023/12/02 00:52:32;;;;;;;51.95;27.60;;;-0.10;92.60;;;;;;5111538;27;20411;-72
2023/12/02 00:54:58;;;;;;;49.10;27.17;;;-0.10;92.70;;;;;;5109589;27;20434;-71
2023/12/02 00:57:23;;;;;;;52.23;28.60;;;-0.10;92.70;;;;;;5129207;27;20421;-71
2023/12/02 00:59:49;;;;;;;53.28;28.42;;;-0.10;92.50;;;;;;5129003;27;20414;-72
2023/12/02 01:02:14;;;;;;;47.58;26.48;;;-0.10;92.60;;;;;;5129255;27;20449;-71
2023/12/02 01:04:40;;;;;;;48.07;27.83;;;-0.10;92.60;;;;;;5128645;27;20415;-71
2023/12/02 01:07:06;;;;;;;49.53;27.52;;;-0.10;92.70;;;;;;5126331;27;20780;-71
2023/12/02 01:09:31;;;;;;;46.83;27.20;;;-0.10;92.80;;;;;;5113461;27;21548;-71
2023/12/02 01:11:57;;;;;;;47.80;26.80;;;-0.10;92.80;;;;;;5129344;27;20562;-71
2023/12/02 01:14:24;;;;;;;48.20;26.77;;;-0.10;92.90;;;;;;5129431;27;20438;-71
2023/12/02 01:16:49;;;;;;;50.10;27.85;;;-0.10;92.80;;;;;;5128199;27;20423;-72
2023/12/02 01:19:15;;;;;;;49.30;27.53;;;-0.10;92.80;;;;;;5129640;27;20760;-71
2023/12/02 01:21:40;;;;;;;50.07;26.83;;;-0.10;92.60;;;;;;5129926;27;20962;-72
2023/12/02 01:24:06;;;;;;;46.53;25.92;;;-0.10;92.60;;;;;;5109865;27;20430;-71
2023/12/02 01:26:32;;;;;;;48.05;26.23;;;-0.10;92.60;;;;;;5102688;28;20484;-71
2023/12/02 01:28:58;;;;;;;48.37;26.20;;;-0.10;92.60;;;;;;5127435;27;20414;-71
2023/12/02 01:31:23;;;;;;;50.95;26.67;;;-0.10;92.60;;;;;;5129700;27;20471;-71
2023/12/02 01:33:49;;;;;;;48.42;25.90;;;-0.20;92.70;;;;;;5128125;27;20410;-72
2023/12/02 01:36:15;;;;;;;46.37;26.03;;;-0.20;92.80;;;;;;5128809;27;20422;-72
2023/12/02 01:38:40;;;;;;;45.33;25.60;;;-0.20;92.80;;;;;;5128040;27;20426;-71
2023/12/02 01:41:06;;;;;;;45.90;25.90;;;-0.10;92.80;;;;;;5110966;27;20450;-71
2023/12/02 01:43:32;;;;;;;45.10;25.52;;;-0.20;92.90;;;;;;5108671;27;20434;-71
2023/12/02 01:45:58;;;;;;;44.92;25.27;;;-0.10;93.00;;;;;;5110282;27;20423;-71
2023/12/02 01:48:26;;;;;;;50.07;26.30;;;-0.10;93.10;;;;;;5127683;27;20410;-72
2023/12/02 01:50:52;;;;;;;47.88;25.35;;;-0.10;93.00;;;;;;5111095;27;20795;-71
2023/12/02 01:53:18;;;;;;;48.25;26.58;;;-0.10;92.90;;;;;;5128686;27;20421;-72
2023/12/02 01:55:44;;;;;;;45.33;25.63;;;-0.10;92.90;;;;;;5127422;27;20415;-72
2023/12/02 01:58:10;;;;;;;43.35;25.52;;;-0.10;92.90;;;;;;5109144;27;20422;-72
2023/12/02 02:00:35;;;;;;;43.80;24.45;;;-0.10;92.90;;;;;;5106847;28;20940;-71
2023/12/02 02:03:01;;;;;;;43.70;23.70;;;-0.10;93.00;;;;;;5107559;28;20440;-71
2023/12/02 02:05:27;;;;;;;43.22;24.45;;;-0.10;93.10;;;;;;5107572;28;20419;-72
2023/12/02 02:07:52;;;;;;;46.25;25.23;;;-0.10;93.10;;;;;;5107793;28;20409;-71
2023/12/02 02:10:22;;;;;;;46.17;25.47;;;-0.10;93.10;;;;;;5108288;28;20945;-71
2023/12/02 02:12:47;;;;;;;46.88;24.65;;;-0.10;93.10;;;;;;5108205;28;20410;-71
2023/12/02 02:15:13;;;;;;;43.47;24.65;;;-0.10;93.10;;;;;;5107732;28;20443;-71
2023/12/02 02:17:39;;;;;;;44.35;25.05;;;-0.10;93.00;;;;;;5102812;28;20406;-71
2023/12/02 02:20:05;;;;;;;50.77;25.60;;;-0.20;92.90;;;;;;5105703;28;20926;-71
2023/12/02 02:22:31;;;;;;;47.85;25.20;;;-0.20;92.80;;;;;;5097219;28;20437;-71
2023/12/02 02:24:57;;;;;;;47.75;25.10;;;-0.20;92.70;;;;;;5099301;28;20782;-71
2023/12/02 02:27:22;;;;;;;48.97;26.27;;;-0.20;92.60;;;;;;5089216;28;20407;-71
2023/12/02 02:29:48;;;;;;;51.10;26.23;;;-0.20;92.60;;;;;;5107321;28;20452;-71
2023/12/02 02:32:14;;;;;;;47.50;25.77;;;-0.30;92.80;;;;;;5108297;28;20899;-71
2023/12/02 02:34:41;;;;;;;44.33;25.20;;;-0.20;92.90;;;;;;5105972;28;20416;-71
2023/12/02 02:37:07;;;;;;;48.28;25.83;;;-0.20;93.00;;;;;;5106998;28;20764;-71
2023/12/02 02:39:33;;;;;;;48.38;25.42;;;-0.20;93.00;;;;;;5104056;28;20435;-71
2023/12/02 02:42:05;;;;;;;46.53;24.63;;;-0.30;93.00;;;;;;5108075;28;20546;-71
2023/12/02 02:44:34;;;;;;;47.15;25.20;;;-0.30;93.10;;;;;;5089996;28;20408;-71
2023/12/02 02:46:59;;;;;;;46.95;24.90;;;-0.30;93.00;;;;;;5106197;28;20408;-71
2023/12/02 02:49:25;;;;;;;46.97;24.90;;;-0.30;92.90;;;;;;5105502;28;20431;-71
2023/12/02 02:51:50;;;;;;;45.33;24.30;;;-0.30;93.00;;;;;;5105700;28;20430;-72
2023/12/02 02:54:16;;;;;;;45.53;24.60;;;-0.30;93.00;;;;;;5108084;28;20403;-72
2023/12/02 02:56:43;;;;;;;45.23;24.53;;;-0.30;93.10;;;;;;5107103;28;20954;-72
2023/12/02 02:59:09;;;;;;;46.13;24.67;;;-0.30;93.10;;;;;;5111478;28;20490;-72
2023/12/02 03:01:34;;;;;;;46.23;25.03;;;-0.30;93.00;;;;;;5127250;27;20424;-72
2023/12/02 03:04:00;;;;;;;48.80;25.23;;;-0.30;93.00;;;;;;5128332;28;20517;-72
2023/12/02 03:06:26;;;;;;;45.37;25.40;;;-0.30;93.00;;;;;;5108760;28;20426;-71
2023/12/02 03:08:51;;;;;;;48.87;25.30;;;-0.40;92.90;;;;;;5128314;27;20403;-72
2023/12/02 03:11:17;;;;;;;44.55;25.73;;;-0.40;93.00;;;;;;5127318;27;20422;-71
2023/12/02 03:13:42;;;;;;;43.80;24.08;;;-0.40;93.10;;;;;;5131892;27;20968;-72
2023/12/02 03:16:08;;;;;;;46.60;24.97;;;-0.40;93.10;;;;;;5129322;27;20787;-72
2023/12/02 03:18:34;;;;;;;42.40;24.27;;;-0.40;93.10;;;;;;5113869;27;20402;-71
2023/12/02 03:21:00;;;;;;;44.93;25.13;;;-0.40;93.20;;;;;;5131094;27;21503;-71
2023/12/02 03:23:25;;;;;;;47.95;25.23;;;-0.40;93.50;;;;;;5132301;27;20418;-72
2023/12/02 03:25:51;;;;;;;46.97;24.83;;;-0.40;93.50;;;;;;5108793;27;20426;-72
2023/12/02 03:28:18;;;;;;;44.87;25.37;;;-0.40;93.60;;;;;;5129985;27;20498;-72
2023/12/02 03:30:43;;;;;;;41.78;23.80;;;-0.40;93.60;;;;;;5125314;27;20911;-72
2023/12/02 03:33:09;;;;;;;39.92;22.25;;;-0.30;93.60;;;;;;5111024;27;20538;-72
2023/12/02 03:35:35;;;;;;;41.78;23.40;;;-0.30;93.60;;;;;;5100101;27;21219;-72
2023/12/02 03:38:01;;;;;;;41.87;23.33;;;-0.30;93.60;;;;;;5130747;27;20454;-72
2023/12/02 03:40:26;;;;;;;39.08;22.30;;;-0.30;93.60;;;;;;5130287;27;20493;-72
2023/12/02 03:42:52;;;;;;;37.35;21.48;;;-0.30;93.60;;;;;;5126099;27;20429;-71
2023/12/02 03:45:17;;;;;;;39.57;22.90;;;-0.30;93.60;;;;;;5112737;27;20773;-72
2023/12/02 03:47:43;;;;;;;38.60;21.80;;;-0.30;93.40;;;;;;5130260;27;20506;-72
2023/12/02 03:50:09;;;;;;;39.50;22.25;;;-0.30;93.40;;;;;;5113540;27;20768;-72
2023/12/02 03:52:35;;;;;;;36.92;20.95;;;-0.30;93.50;;;;;;5109442;27;20939;-72
2023/12/02 03:55:01;;;;;;;40.03;22.70;;;-0.30;93.50;;;;;;5112993;27;20597;-72
2023/12/02 03:57:27;;;;;;;39.78;22.45;;;-0.30;93.40;;;;;;5129783;27;20903;-72
2023/12/02 03:59:53;;;;;;;38.28;22.15;;;-0.20;93.40;;;;;;5131143;27;20490;-72
2023/12/02 04:02:18;;;;;;;38.58;22.25;;;-0.30;93.30;;;;;;5130419;27;20458;-72
2023/12/02 04:04:44;;;;;;;37.60;21.93;;;-0.30;93.30;;;;;;5113220;27;20402;-72
2023/12/02 04:07:10;;;;;;;38.70;21.97;;;-0.30;93.10;;;;;;5129975;27;21008;-71
2023/12/02 04:09:35;;;;;;;35.05;20.80;;;-0.30;93.10;;;;;;5130882;27;20390;-72
2023/12/02 04:12:01;;;;;;;34.50;20.67;;;-0.30;93.00;;;;;;5131360;27;20395;-72
2023/12/02 04:14:26;;;;;;;37.40;20.70;;;-0.30;92.90;;;;;;5111824;27;20427;-72
2023/12/02 04:16:52;;;;;;;33.85;20.10;;;-0.30;92.90;;;;;;5128216;27;20527;-72
2023/12/02 04:19:18;;;;;;;34.33;20.47;;;-0.30;92.90;;;;;;5130014;27;20445;-72
2023/12/02 04:21:44;;;;;;;34.60;19.77;;;-0.30;92.90;;;;;;5130747;27;20435;-72
2023/12/02 04:24:10;;;;;;;34.33;19.80;;;-0.30;92.90;;;;;;5110370;27;20418;-71
2023/12/02 04:26:36;;;;;;;34.65;20.20;;;-0.30;93.00;;;;;;5130003;27;20443;-72
2023/12/02 04:29:02;;;;;;;35.75;20.15;;;-0.30;93.00;;;;;;5130222;27;20415;-72
2023/12/02 04:31:28;;;;;;;30.52;19.38;;;-0.30;92.90;;;;;;5130583;27;20418;-72
2023/12/02 04:33:53;;;;;;;31.50;19.47;;;-0.30;92.90;;;;;;5111433;27;20533;-72
2023/12/02 04:36:19;;;;;;;30.83;18.80;;;-0.30;92.80;;;;;;5130813;27;20434;-72
2023/12/02 04:38:45;;;;;;;32.30;19.05;;;-0.30;92.80;;;;;;5127660;27;20467;-72
2023/12/02 04:41:11;;;;;;;30.07;18.60;;;-0.30;92.70;;;;;;5130191;27;20834;-72
2023/12/02 04:43:36;;;;;;;30.80;18.52;;;-0.40;92.70;;;;;;5129789;27;20553;-72
2023/12/02 04:46:02;;;;;;;32.67;19.17;;;-0.40;92.60;;;;;;5112190;27;20399;-72
2023/12/02 04:48:28;;;;;;;32.57;19.47;;;-0.40;92.60;;;;;;5121406;27;20413;-72
2023/12/02 04:50:53;;;;;;;31.67;18.95;;;-0.40;92.50;;;;;;5129839;27;20900;-72
2023/12/02 04:53:20;;;;;;;31.03;19.20;;;-0.40;92.50;;;;;;5112029;27;20410;-72
2023/12/02 04:55:46;;;;;;;32.33;19.58;;;-0.40;92.50;;;;;;5129170;27;20422;-72
2023/12/02 04:58:11;;;;;;;33.25;19.10;;;-0.40;92.30;;;;;;5125081;27;20418;-72
2023/12/02 05:00:37;;;;;;;30.55;18.58;;;-0.40;92.20;;;;;;5129171;27;20419;-72
2023/12/02 05:03:03;;;;;;;37.67;23.50;;;-0.40;92.20;;;;;;5111823;27;20426;-72
2023/12/02 05:05:29;;;;;;;32.05;19.08;;;-0.40;92.40;;;;;;5129704;27;21038;-72
2023/12/02 05:07:54;;;;;;;31.97;19.37;;;-0.40;92.40;;;;;;5128280;27;20822;-72
2023/12/02 05:10:20;;;;;;;31.23;18.93;;;-0.40;92.40;;;;;;5128704;27;20501;-72
2023/12/02 05:12:45;;;;;;;32.47;19.42;;;-0.40;92.40;;;;;;5129940;27;20395;-72
2023/12/02 05:15:11;;;;;;;31.20;19.50;;;-0.40;92.40;;;;;;5108996;27;20418;-72
2023/12/02 05:17:37;;;;;;;31.60;20.00;;;-0.40;92.70;;;;;;5100675;27;20528;-72
2023/12/02 05:20:03;;;;;;;33.00;19.63;;;-0.40;92.20;;;;;;5110420;27;21027;-72
2023/12/02 05:22:28;;;;;;;29.65;18.75;;;-0.40;92.10;;;;;;5126482;27;20513;-72
2023/12/02 05:24:54;;;;;;;31.93;19.50;;;-0.50;92.10;;;;;;5106779;27;20422;-72
2023/12/02 05:27:20;;;;;;;33.97;19.70;;;-0.50;92.00;;;;;;5129498;27;20406;-72
2023/12/02 05:29:45;;;;;;;31.80;19.00;;;-0.50;92.00;;;;;;5110540;27;20403;-72
2023/12/02 05:32:11;;;;;;;33.50;20.05;;;-0.50;92.00;;;;;;5129438;27;20463;-72
2023/12/02 05:34:37;;;;;;;34.47;20.00;;;-0.50;92.00;;;;;;5129271;27;20402;-72
2023/12/02 05:37:02;;;;;;;32.57;21.03;;;-0.50;92.00;;;;;;5109998;27;20416;-72
2023/12/02 05:39:28;;;;;;;33.17;20.10;;;-0.50;92.10;;;;;;5129494;27;20396;-72
2023/12/02 05:41:54;;;;;;;33.88;20.95;;;-0.50;92.10;;;;;;5105955;27;20418;-72
2023/12/02 05:44:20;;;;;;;33.70;20.35;;;-0.50;92.00;;;;;;5129375;27;20439;-72
2023/12/02 05:46:45;;;;;;;33.77;20.87;;;-0.50;92.00;;;;;;5125787;27;20425;-72
2023/12/02 05:49:11;;;;;;;34.70;20.77;;;-0.50;92.10;;;;;;5129514;27;20490;-72
2023/12/02 05:51:38;;;;;;;34.27;21.00;;;-0.50;92.10;;;;;;5092649;27;20936;-71
2023/12/02 05:54:07;;;;;;;36.10;21.63;;;-0.50;92.10;;;;;;5129144;27;20420;-72
2023/12/02 05:56:32;;;;;;;35.72;21.38;;;-0.50;92.00;;;;;;5105205;27;20411;-71
2023/12/02 05:58:58;;;;;;;35.25;21.95;;;-0.50;91.90;;;;;;5128787;27;20444;-71
2023/12/02 06:01:24;;;;;;;36.30;22.60;;;-0.50;92.00;;;;;;5122325;27;20904;-72
2023/12/02 06:03:50;;;;;;;37.60;21.67;;;-0.50;92.00;;;;;;5128831;27;20422;-72
2023/12/02 06:06:16;;;;;;;36.67;22.75;;;-0.50;92.00;;;;;;5127775;27;21417;-72
2023/12/02 06:08:41;;;;;;;39.10;23.03;;;-0.50;92.00;;;;;;5128527;27;20904;-72
2023/12/02 06:11:07;;;;;;;38.13;22.40;;;-0.50;92.10;;;;;;5109786;27;20423;-72
2023/12/02 06:13:33;;;;;;;36.40;23.33;;;-0.50;92.10;;;;;;5110373;27;20402;-71
2023/12/02 06:15:59;;;;;;;38.47;23.20;;;-0.50;92.10;;;;;;5128341;27;20431;-72
2023/12/02 06:18:24;;;;;;;37.88;22.48;;;-0.50;92.20;;;;;;5127813;27;20406;-71
2023/12/02 06:20:50;;;;;;;40.53;23.50;;;-0.50;92.20;;;;;;5128763;27;20402;-72
2023/12/02 06:23:16;;;;;;;38.60;23.23;;;-0.50;92.20;;;;;;5091639;28;20777;-72
2023/12/02 06:25:41;;;;;;;42.05;23.52;;;-0.50;92.20;;;;;;5109817;27;20406;-72
2023/12/02 06:28:07;;;;;;;39.93;23.20;;;-0.50;92.10;;;;;;5107789;28;20418;-72
2023/12/02 06:30:32;;;;;;;37.70;22.33;;;-0.50;92.10;;;;;;5092792;27;20873;-72
2023/12/02 06:32:58;;;;;;;38.50;23.52;;;-0.50;92.10;;;;;;5126086;27;20410;-72
2023/12/02 06:35:24;;;;;;;39.95;23.35;;;-0.50;92.10;;;;;;5109908;28;20419;-71
2023/12/02 06:37:49;;;;;;;40.67;23.60;;;-0.50;92.20;;;;;;5106641;28;20920;-72
2023/12/02 06:40:15;;;;;;;41.05;23.75;;;-0.50;92.20;;;;;;5128676;27;20481;-71
2023/12/02 06:42:41;;;;;;;41.97;23.92;;;-0.50;92.20;;;;;;5127792;28;20434;-72
2023/12/02 06:45:07;;;;;;;41.57;24.70;;;-0.50;92.20;;;;;;5128588;27;20410;-72
2023/12/02 06:47:32;;;;;;;41.60;24.50;;;-0.50;92.10;;;;;;5125341;27;20485;-72
2023/12/02 06:49:58;;;;;;;41.73;23.97;;;-0.50;92.00;;;;;;5132742;27;20394;-72
2023/12/02 06:52:24;;;;;;;44.45;25.10;;;-0.50;92.10;;;;;;5113721;27;20399;-72
2023/12/02 06:54:49;;;;;;;43.95;24.40;;;-0.50;92.20;;;;;;5114235;27;20524;-72
2023/12/02 06:57:16;;;;;;;44.03;25.00;;;-0.60;92.10;;;;;;5126371;27;20414;-72
2023/12/02 06:59:45;;;;;;;43.22;25.05;;;-0.50;92.20;;;;;;5131001;27;20423;-72
2023/12/02 07:02:11;;;;;;;44.72;25.52;;;-0.50;92.30;;;;;;5132737;27;20449;-72
2023/12/02 07:04:37;;;;;;;42.37;24.90;;;-0.60;92.30;;;;;;5111565;27;20466;-72
2023/12/02 07:07:03;;;;;;;46.50;25.73;;;-0.50;92.20;;;;;;5130882;27;20797;-72
2023/12/02 07:09:28;;;;;;;43.97;25.58;;;-0.50;92.10;;;;;;5127809;27;20901;-72
2023/12/02 07:11:54;;;;;;;44.15;25.33;;;-0.60;92.20;;;;;;5132381;27;20403;-72
2023/12/02 07:14:19;;;;;;;44.43;25.93;;;-0.60;92.30;;;;;;5128145;27;20787;-72
2023/12/02 07:16:45;;;;;;;44.63;25.83;;;-0.60;92.40;;;;;;5132022;27;20429;-72
2023/12/02 07:19:11;;;;;;;45.78;26.42;;;-0.60;92.50;;;;;;5112871;27;20788;-72
2023/12/02 07:21:36;;;;;;;47.03;26.47;;;-0.60;92.50;;;;;;5132571;27;20399;-72
2023/12/02 07:24:02;;;;;;;45.65;26.75;;;-0.60;92.40;;;;;;5113022;27;20418;-72
2023/12/02 07:26:28;;;;;;;47.28;26.20;;;-0.60;92.50;;;;;;5131164;27;20478;-72
2023/12/02 07:28:53;;;;;;;42.33;25.50;;;-0.60;92.60;;;;;;5130855;27;20443;-72
2023/12/02 07:31:19;;;;;;;46.50;26.30;;;-0.60;92.60;;;;;;5112700;27;20411;-72
2023/12/02 07:33:45;;;;;;;47.40;25.70;;;-0.60;92.70;;;;;;5095566;27;20465;-72
2023/12/02 07:36:11;;;;;;;45.10;25.50;;;-0.60;92.70;;;;;;5130977;27;20422;-72
2023/12/02 07:38:38;;;;;;;43.72;25.52;;;-0.60;92.60;;;;;;5131004;27;20387;-71
2023/12/02 07:41:04;;;;;;;43.28;25.13;;;-0.60;92.50;;;;;;5095631;27;20529;-71
2023/12/02 07:43:30;;;;;;;42.53;25.13;;;-0.60;92.50;;;;;;5131790;27;20910;-72
2023/12/02 07:45:56;;;;;;;44.85;25.98;;;-0.60;92.50;;;;;;5094783;27;20429;-72
2023/12/02 07:48:22;;;;;;;45.20;25.60;;;-0.60;92.60;;;;;;5131619;27;20398;-72
2023/12/02 07:50:47;;;;;;;45.47;26.07;;;-0.60;92.60;;;;;;5112994;27;20406;-72
2023/12/02 07:53:13;;;;;;;43.72;25.80;;;-0.60;92.70;;;;;;5127761;27;20517;-72
2023/12/02 07:55:38;;;;;;;43.63;25.80;;;-0.60;92.70;;;;;;5119657;27;20404;-72
2023/12/02 07:58:04;;;;;;;42.37;24.50;;;-0.60;92.70;;;;;;5105443;27;20456;-72
2023/12/02 08:00:30;;;;;;;43.25;25.02;;;-0.60;92.80;;;;;;5129272;27;20455;-72
2023/12/02 08:02:56;;;;;;;43.55;25.02;;;-0.50;93.00;;;;;;5119704;27;20410;-72
2023/12/02 08:05:21;;;;;;;42.27;24.57;;;-0.50;93.10;;;;;;5113252;27;20766;-72
2023/12/02 08:07:47;;;;;;;44.13;25.33;;;-0.50;93.20;;;;;;5126893;27;20450;-72
2023/12/02 08:10:13;;;;;;;41.90;24.50;;;-0.40;93.20;;;;;;5128776;27;20410;-72
2023/12/02 08:12:39;;;;;;;41.22;24.73;;;-0.40;93.10;;;;;;5123902;27;20403;-72
2023/12/02 08:15:05;;;;;;;39.78;24.17;;;-0.40;93.10;;;;;;5130878;27;20390;-72
2023/12/02 08:17:31;;;;;;;38.35;23.83;;;-0.40;93.10;;;;;;5127912;27;21138;-72
2023/12/02 08:19:57;;;;;;;41.07;24.47;;;-0.40;93.20;;;;;;5127992;27;20418;-72
2023/12/02 08:22:24;;;;;;;41.17;23.90;;;-0.30;93.20;;;;;;5127594;27;20410;-72
2023/12/02 08:24:51;;;;;;;40.30;25.05;;;-0.40;93.20;;;;;;5129239;27;20974;-72
2023/12/02 08:27:17;;;;;;;42.55;24.90;;;-0.30;93.30;;;;;;5126327;27;20974;-72
2023/12/02 08:29:43;;;;;;;40.33;23.75;;;-0.30;93.30;;;;;;5130219;27;20519;-73
2023/12/02 08:32:09;;;;;;;41.65;24.98;;;-0.20;93.30;;;;;;5129213;27;20419;-73
2023/12/02 08:34:34;;;;;;;40.88;23.85;;;-0.20;93.40;;;;;;5128545;27;20426;-73
2023/12/02 08:37:00;;;;;;;41.45;25.10;;;-0.20;93.30;;;;;;5128543;27;20980;-72
2023/12/02 08:39:26;;;;;;;39.27;24.03;;;-0.10;93.30;;;;;;5105106;27;20963;-73
2023/12/02 08:41:52;;;;;;;39.87;24.00;;;-0.10;93.20;;;;;;5119611;27;20506;-72
2023/12/02 08:44:17;;;;;;;41.93;24.27;;;-0.10;93.30;;;;;;5117965;27;20434;-72
2023/12/02 08:46:43;;;;;;;40.88;23.85;;;-0.10;93.60;;;;;;5127757;27;20535;-72
2023/12/02 08:49:08;;;;;;;39.97;23.67;;;-0.10;93.30;;;;;;5129278;27;20398;-72
2023/12/02 08:51:34;;;;;;;39.47;23.80;;;0.00;93.40;;;;;;5092761;27;20395;-72
2023/12/02 08:54:01;;;;;;;39.20;23.65;;;0.00;93.30;;;;;;5122134;27;20394;-72
2023/12/02 08:56:27;;;;;;;40.25;23.35;;;0.10;93.30;;;;;;5128983;27;20481;-72
2023/12/02 08:58:54;;;;;;;41.13;24.00;;;0.10;93.20;;;;;;5100145;27;20487;-72
2023/12/02 09:01:20;;;;;;;40.13;24.10;;;0.00;93.10;;;;;;5101928;27;20932;-72
2023/12/02 09:03:46;;;;;;;41.63;24.70;;;0.10;93.00;;;;;;5124665;27;20471;-72
2023/12/02 09:06:11;;;;;;;39.25;24.52;;;0.10;93.10;;;;;;5129276;27;20803;-72
2023/12/02 09:08:37;;;;;;;40.43;24.17;;;0.10;93.10;;;;;;5117137;27;20391;-74
2023/12/02 09:11:04;;;;;;;39.55;24.50;;;0.20;92.90;;;;;;5117098;27;20403;-72
2023/12/02 09:13:46;;;;;;;38.30;23.45;;;0.20;93.00;;;;;;5108907;27;20394;-73
2023/12/02 09:16:19;;;;;;;39.17;23.63;;;0.20;93.20;;;;;;5105549;27;20428;-74
2023/12/02 09:18:46;;;;;;;39.42;24.50;;;0.20;93.10;;;;;;5106632;27;20920;-73
2023/12/02 09:21:42;;;;;;;36.00;23.20;;;0.30;93.20;;;;;;5126563;27;20506;-73
2023/12/02 09:24:34;;;;;;;36.92;23.63;;;0.40;93.20;;;;;;5119524;27;20839;-71
2023/12/02 09:27:00;;;;;;;36.17;23.17;;;0.40;93.10;;;;;;5120271;27;20427;-72
2023/12/02 09:29:33;;;;;;;37.40;23.50;;;0.50;93.10;;;;;;5129074;27;20422;-73
2023/12/02 09:32:00;;;;;;;38.00;23.65;;;0.50;92.90;;;;;;5129824;27;20478;-73
2023/12/02 09:34:41;;;;;;;37.10;23.73;;;0.60;92.80;;;;;;5125473;27;20475;-73
2023/12/02 09:37:42;;;;;;;39.10;23.65;;;0.60;92.20;;;;;;5126641;27;20453;-73
2023/12/02 09:40:24;;;;;;;38.10;24.00;;;0.60;92.20;;;;;;5108656;27;20426;-73
2023/12/02 09:43:22;;;;;;;38.85;24.10;;;0.70;92.20;;;;;;5110244;27;20431;-73
2023/12/02 09:46:02;;;;;;;36.40;24.35;;;0.70;92.10;;;;;;5109206;27;20415;-73
2023/12/02 09:48:31;;;;;;;37.90;25.10;;;0.80;92.00;;;;;;5110801;27;20410;-73
2023/12/02 09:51:21;;;;;;;36.78;23.92;;;0.90;91.80;;;;;;5108253;27;20458;-73
2023/12/02 09:54:04;;;;;;;37.50;24.17;;;0.90;91.50;;;;;;5128290;27;20419;-73
2023/12/02 09:56:38;;;;;;;37.10;23.23;;;1.00;91.60;;;;;;5121189;27;20424;-73
2023/12/02 09:59:42;;;;;;;33.83;23.02;;;1.10;91.80;;;;;;5123572;27;20527;-73
2023/12/02 10:03:06;;;;;;;33.70;23.05;;;1.20;91.70;;;;;;5127862;27;20781;-74
2023/12/02 10:05:42;;;;;;;32.50;22.30;;;1.30;91.40;;;;;;5103844;27;20506;-74
2023/12/02 10:08:25;;;;;;;33.80;22.45;;;1.40;91.00;;;;;;5109091;27;20417;-73
2023/12/02 10:11:26;;;;;;;34.55;22.00;;;1.40;90.40;;;;;;5126879;27;20418;-74
2023/12/02 10:14:00;;;;;;;34.35;23.02;;;1.40;89.60;;;;;;5090816;27;20506;-74
2023/12/02 10:16:30;;;;;;;32.67;22.10;;;1.40;88.30;;;;;;5092654;27;20418;-74
2023/12/02 10:18:59;;;;;;;33.08;22.63;;;1.30;88.70;;;;;;5126869;27;20397;-74
2023/12/02 10:21:31;;;;;;;33.05;22.02;;;1.40;89.10;;;;;;5126320;27;20498;-74
2023/12/02 10:24:02;;;;;;;30.70;21.00;;;1.50;89.00;;;;;;5128002;27;20522;-74
2023/12/02 10:26:31;;;;;;;31.65;21.70;;;1.50;89.00;;;;;;5128698;27;20425;-74
2023/12/02 10:29:30;;;;;;;33.05;22.20;;;1.60;88.80;;;;;;5127856;27;20410;-74
2023/12/02 10:32:07;;;;;;;29.00;20.55;;;1.70;88.70;;;;;;5124835;27;20426;-74
2023/12/02 10:34:37;;;;;;;32.05;21.58;;;1.80;88.20;;;;;;5110032;28;20772;-74
2023/12/02 10:37:04;;;;;;;29.70;20.52;;;2.00;88.50;;;;;;5127775;28;20531;-74
2023/12/02 10:39:39;;;;;;;32.00;21.55;;;2.10;89.70;;;;;;5110411;28;20410;-75
2023/12/02 10:42:07;;;;;;;29.77;21.13;;;2.30;88.00;;;;;;5108170;28;20880;-75
2023/12/02 10:44:33;;;;;;;29.13;20.83;;;2.30;85.20;;;;;;5110234;28;20438;-74
2023/12/02 10:47:04;;;;;;;29.17;19.73;;;2.30;83.70;;;;;;5098113;28;20406;-74
2023/12/02 10:49:31;;;;;;;27.33;19.25;;;2.40;85.20;;;;;;5127138;28;20420;-74
2023/12/02 10:52:02;;;;;;;25.55;18.45;;;2.60;85.70;;;;;;5127175;27;20908;-74
2023/12/02 10:54:33;;;;;;;27.85;19.13;;;2.70;85.80;;;;;;5109534;28;20427;-74
2023/12/02 10:57:07;;;;;;;24.75;18.00;;;3.00;84.80;;;;;;5128059;28;20553;-74
2023/12/02 10:59:40;;;;;;;24.50;16.80;;;3.10;81.70;;;;;;5108590;28;20508;-74
2023/12/02 11:02:05;;;;;;;23.58;17.25;;;3.10;78.90;;;;;;5127371;28;20429;-74
2023/12/02 11:04:35;;;;;;;23.77;16.80;;;3.20;79.00;;;;;;5127855;28;20426;-75
2023/12/02 11:07:07;;;;;;;22.80;16.42;;;3.70;89.20;;;;;;5128367;27;20518;-74
2023/12/02 11:10:19;;;;;;;22.00;16.10;;;4.50;90.00;;;;;;5124763;28;20415;-74
2023/12/02 11:12:51;;;;;;;20.30;14.55;;;5.40;83.90;;;;;;5082195;28;20429;-72
2023/12/02 11:15:23;;;;;;;19.10;14.68;;;5.90;67.10;;;;;;5127540;28;20763;-73
2023/12/02 11:18:05;;;;;;;18.20;14.30;;;6.30;54.80;;;;;;5127911;28;20750;-73
2023/12/02 11:20:33;;;;;;;18.88;14.35;;;6.30;40.80;;;;;;5104821;28;20965;-73
2023/12/02 11:23:35;;;;;;;19.20;14.57;;;6.10;31.50;;;;;;5101724;28;20426;-73
2023/12/02 11:26:25;;;;;;;18.25;13.40;;;5.70;33.00;;;;;;5109205;28;20403;-73
2023/12/02 11:28:59;;;;;;;18.08;13.43;;;5.30;30.20;;;;;;5125756;28;20422;-73
2023/12/02 11:31:52;;;;;;;19.08;14.30;;;4.70;33.50;;;;;;5123879;28;20974;-73
2023/12/02 11:35:04;;;;;;;20.45;14.73;;;4.20;32.10;;;;;;5103885;27;20461;-73
2023/12/02 11:37:39;;;;;;;20.80;15.10;;;3.70;41.80;;;;;;5118750;27;20901;-73
2023/12/02 11:40:45;;;;;;;19.80;14.75;;;3.50;46.30;;;;;;5112313;27;20522;-73
2023/12/02 11:43:25;;;;;;;19.25;14.27;;;3.20;48.20;;;;;;5110517;27;20513;-73
2023/12/02 11:45:57;;;;;;;19.38;14.38;;;3.10;53.20;;;;;;5100986;28;20432;-73
2023/12/02 11:48:41;;;;;;;20.60;14.13;;;2.90;55.70;;;;;;5131166;27;20534;-73
2023/12/02 11:51:25;;;;;;;18.42;13.45;;;2.80;59.90;;;;;;5129364;27;20410;-73
2023/12/02 11:54:01;;;;;;;17.48;12.23;;;2.90;61.60;;;;;;5122251;27;20931;-73
2023/12/02 11:56:27;;;;;;;16.88;11.73;;;2.80;61.30;;;;;;5110770;27;20459;-73
2023/12/02 11:58:54;;;;;;;16.92;11.85;;;2.70;60.70;;;;;;5131208;27;20398;-74
2023/12/02 12:01:37;;;;;;;13.75;10.38;;;2.70;61.60;;;;;;5093461;27;20437;-74
2023/12/02 12:04:30;;;;;;;15.27;10.88;;;2.70;63.50;;;;;;5112661;27;20434;-74
2023/12/02 12:07:30;;;;;;;15.68;11.30;;;2.90;65.00;;;;;;5126429;27;20521;-74
2023/12/02 12:10:13;;;;;;;15.50;11.77;;;3.10;65.40;;;;;;5121121;27;20464;-74
2023/12/02 12:12:42;;;;;;;14.77;10.90;;;3.20;66.80;;;;;;5130194;27;20402;-74
2023/12/02 12:15:08;;;;;;;15.00;11.15;;;3.60;66.80;;;;;;5129965;27;20476;-74
2023/12/02 12:17:34;;;;;;;15.55;10.88;;;3.60;60.00;;;;;;5130118;27;20919;-74
2023/12/02 12:20:16;;;;;;;14.50;9.97;;;3.60;57.50;;;;;;5112206;27;20434;-74
2023/12/02 12:22:42;;;;;;;13.75;9.85;;;3.50;54.50;;;;;;5111268;27;20936;-74
2023/12/02 12:25:08;;;;;;;12.10;8.95;;;3.50;58.00;;;;;;5130256;27;20402;-74
2023/12/02 12:27:33;;;;;;;14.55;7.90;;;3.70;61.70;;;;;;5107944;27;20442;-74
2023/12/02 12:29:59;;;;;;;10.73;7.17;;;4.00;58.60;;;;;;5112106;27;20459;-75
2023/12/02 12:32:25;;;;;;;9.95;7.32;;;4.00;52.10;;;;;;5109513;27;20415;-74
2023/12/02 12:34:55;;;;;;;8.65;6.72;;;3.80;46.40;;;;;;5112049;27;20442;-74
2023/12/02 12:37:21;;;;;;;9.90;6.53;;;3.60;47.10;;;;;;5108882;27;21019;-75
2023/12/02 12:39:48;;;;;;;9.90;6.30;;;3.60;49.60;;;;;;5111515;27;20487;-74